sensor_id;sensor_type;location;lat;lon;timestamp;P1;durP1;ratioP1;P2;durP2;ratioP2
4106;SDS011;21906;50.812;7.132;2022-09-12T00:01:29;20.27;;;14.20;;
4106;SDS011;21906;50.812;7.132;2022-09-12T00:03:55;18.60;;;13.30;;
4106;SDS011;21906;50.812;7.132;2022-09-12T00:06:25;19.70;;;13.10;;
4106;SDS011;21906;50.812;7.132;2022-09-12T00:08:57;20.63;;;14.33;;
4106;SDS011;21906;50.812;7.132;2022-09-12T00:11:24;20.10;;;14.23;;
4106;SDS011;21906;50.812;7.132;2022-09-12T00:13:51;19.87;;;13.40;;
4106;SDS011;21906;50.812;7.132;2022-09-12T00:16:21;22.30;;;14.63;;
4106;SDS011;21906;50.812;7.132;2022-09-12T00:18:48;22.20;;;14.73;;
4106;SDS011;21906;50.812;7.132;2022-09-12T00:21:14;20.10;;;14.40;;
4106;SDS011;21906;50.812;7.132;2022-09-12T00:23:41;19.80;;;13.90;;
4106;SDS011;21906;50.812;7.132;2022-09-12T00:26:08;21.33;;;14.60;;
4106;SDS011;21906;50.812;7.132;2022-09-12T00:28:34;19.20;;;13.37;;
4106;SDS011;21906;50.812;7.132;2022-09-12T00:31:09;18.10;;;13.07;;
4106;SDS011;21906;50.812;7.132;2022-09-12T00:33:36;19.80;;;13.60;;
4106;SDS011;21906;50.812;7.132;2022-09-12T00:36:06;17.23;;;12.67;;
4106;SDS011;21906;50.812;7.132;2022-09-12T00:38:40;18.97;;;13.27;;
4106;SDS011;21906;50.812;7.132;2022-09-12T00:41:09;18.57;;;13.73;;
4106;SDS011;21906;50.812;7.132;2022-09-12T00:43:40;19.60;;;13.00;;
4106;SDS011;21906;50.812;7.132;2022-09-12T00:51:31;22.70;;;12.90;;
4106;SDS011;21906;50.812;7.132;2022-09-12T00:54:01;18.93;;;13.00;;
4106;SDS011;21906;50.812;7.132;2022-09-12T00:56:30;18.17;;;13.30;;
4106;SDS011;21906;50.812;7.132;2022-09-12T00:58:59;18.60;;;12.83;;
4106;SDS011;21906;50.812;7.132;2022-09-12T01:01:30;19.20;;;13.67;;
4106;SDS011;21906;50.812;7.132;2022-09-12T01:03:56;20.97;;;12.70;;
4106;SDS011;21906;50.812;7.132;2022-09-12T01:06:43;18.43;;;12.90;;
4106;SDS011;21906;50.812;7.132;2022-09-12T01:09:14;19.40;;;13.57;;
4106;SDS011;21906;50.812;7.132;2022-09-12T01:11:43;19.03;;;12.93;;
4106;SDS011;21906;50.812;7.132;2022-09-12T01:14:11;18.30;;;13.27;;
4106;SDS011;21906;50.812;7.132;2022-09-12T01:16:38;21.20;;;12.80;;
4106;SDS011;21906;50.812;7.132;2022-09-12T01:24:50;20.70;;;12.53;;
4106;SDS011;21906;50.812;7.132;2022-09-12T01:32:51;16.43;;;12.07;;
4106;SDS011;21906;50.812;7.132;2022-09-12T01:38:11;18.30;;;12.07;;
4106;SDS011;21906;50.812;7.132;2022-09-12T01:43:45;21.17;;;12.07;;
4106;SDS011;21906;50.812;7.132;2022-09-12T01:49:01;16.97;;;11.47;;
4106;SDS011;21906;50.812;7.132;2022-09-12T01:51:47;14.00;;;11.17;;
4106;SDS011;21906;50.812;7.132;2022-09-12T01:57:19;14.50;;;11.60;;
4106;SDS011;21906;50.812;7.132;2022-09-12T01:59:50;20.70;;;12.67;;
4106;SDS011;21906;50.812;7.132;2022-09-12T02:02:24;18.70;;;12.43;;
4106;SDS011;21906;50.812;7.132;2022-09-12T02:04:58;17.27;;;12.23;;
4106;SDS011;21906;50.812;7.132;2022-09-12T02:07:47;17.70;;;11.90;;
4106;SDS011;21906;50.812;7.132;2022-09-12T02:10:19;16.40;;;12.40;;
4106;SDS011;21906;50.812;7.132;2022-09-12T02:12:57;16.60;;;11.87;;
4106;SDS011;21906;50.812;7.132;2022-09-12T02:15:32;17.10;;;12.70;;
4106;SDS011;21906;50.812;7.132;2022-09-12T02:18:04;15.20;;;11.90;;
4106;SDS011;21906;50.812;7.132;2022-09-12T02:20:33;14.17;;;11.43;;
4106;SDS011;21906;50.812;7.132;2022-09-12T02:23:02;15.47;;;11.20;;
4106;SDS011;21906;50.812;7.132;2022-09-12T02:25:33;16.87;;;11.63;;
4106;SDS011;21906;50.812;7.132;2022-09-12T02:28:15;16.40;;;11.37;;
4106;SDS011;21906;50.812;7.132;2022-09-12T02:30:51;15.40;;;12.43;;
4106;SDS011;21906;50.812;7.132;2022-09-12T02:33:23;16.37;;;12.00;;
4106;SDS011;21906;50.812;7.132;2022-09-12T02:35:57;15.37;;;11.83;;
4106;SDS011;21906;50.812;7.132;2022-09-12T02:38:38;16.03;;;11.43;;
4106;SDS011;21906;50.812;7.132;2022-09-12T02:41:06;18.17;;;12.50;;
4106;SDS011;21906;50.812;7.132;2022-09-12T02:43:32;18.17;;;12.60;;
4106;SDS011;21906;50.812;7.132;2022-09-12T02:45:58;21.97;;;13.70;;
4106;SDS011;21906;50.812;7.132;2022-09-12T02:48:27;22.60;;;13.83;;
4106;SDS011;21906;50.812;7.132;2022-09-12T02:50:55;17.40;;;12.53;;
4106;SDS011;21906;50.812;7.132;2022-09-12T02:53:21;17.07;;;12.10;;
4106;SDS011;21906;50.812;7.132;2022-09-12T02:55:47;16.10;;;11.60;;
4106;SDS011;21906;50.812;7.132;2022-09-12T02:58:17;16.50;;;11.83;;
4106;SDS011;21906;50.812;7.132;2022-09-12T03:00:49;17.40;;;11.67;;
4106;SDS011;21906;50.812;7.132;2022-09-12T03:09:01;18.80;;;12.47;;
4106;SDS011;21906;50.812;7.132;2022-09-12T03:11:47;14.83;;;11.23;;
4106;SDS011;21906;50.812;7.132;2022-09-12T03:17:20;16.77;;;11.10;;
4106;SDS011;21906;50.812;7.132;2022-09-12T03:20:10;14.60;;;10.40;;
4106;SDS011;21906;50.812;7.132;2022-09-12T03:25:31;17.10;;;11.80;;
4106;SDS011;21906;50.812;7.132;2022-09-12T03:28:02;18.03;;;12.50;;
4106;SDS011;21906;50.812;7.132;2022-09-12T03:30:42;17.27;;;12.43;;
4106;SDS011;21906;50.812;7.132;2022-09-12T03:33:10;19.10;;;10.43;;
4106;SDS011;21906;50.812;7.132;2022-09-12T03:35:36;15.30;;;11.70;;
4106;SDS011;21906;50.812;7.132;2022-09-12T03:38:02;15.10;;;11.67;;
4106;SDS011;21906;50.812;7.132;2022-09-12T03:40:28;15.00;;;11.07;;
4106;SDS011;21906;50.812;7.132;2022-09-12T03:42:53;16.30;;;11.03;;
4106;SDS011;21906;50.812;7.132;2022-09-12T03:45:19;15.03;;;11.93;;
4106;SDS011;21906;50.812;7.132;2022-09-12T03:47:45;13.27;;;10.73;;
4106;SDS011;21906;50.812;7.132;2022-09-12T03:50:10;14.80;;;11.03;;
4106;SDS011;21906;50.812;7.132;2022-09-12T03:52:36;12.83;;;11.07;;
4106;SDS011;21906;50.812;7.132;2022-09-12T03:55:02;15.33;;;10.73;;
4106;SDS011;21906;50.812;7.132;2022-09-12T03:57:27;14.80;;;10.60;;
4106;SDS011;21906;50.812;7.132;2022-09-12T03:59:53;16.20;;;10.67;;
4106;SDS011;21906;50.812;7.132;2022-09-12T04:02:19;14.37;;;10.50;;
4106;SDS011;21906;50.812;7.132;2022-09-12T04:04:45;13.70;;;11.00;;
4106;SDS011;21906;50.812;7.132;2022-09-12T04:07:12;13.37;;;10.83;;
4106;SDS011;21906;50.812;7.132;2022-09-12T04:09:39;14.33;;;10.70;;
4106;SDS011;21906;50.812;7.132;2022-09-12T04:12:04;13.50;;;10.60;;
4106;SDS011;21906;50.812;7.132;2022-09-12T04:14:30;15.33;;;11.60;;
4106;SDS011;21906;50.812;7.132;2022-09-12T04:16:56;12.93;;;10.93;;
4106;SDS011;21906;50.812;7.132;2022-09-12T04:19:22;15.90;;;11.10;;
4106;SDS011;21906;50.812;7.132;2022-09-12T04:21:49;17.77;;;10.90;;
4106;SDS011;21906;50.812;7.132;2022-09-12T04:24:14;17.33;;;10.67;;
4106;SDS011;21906;50.812;7.132;2022-09-12T04:26:40;15.20;;;10.90;;
4106;SDS011;21906;50.812;7.132;2022-09-12T04:29:05;16.13;;;10.80;;
4106;SDS011;21906;50.812;7.132;2022-09-12T04:31:31;14.37;;;10.40;;
4106;SDS011;21906;50.812;7.132;2022-09-12T04:33:58;14.30;;;10.70;;
4106;SDS011;21906;50.812;7.132;2022-09-12T04:36:25;12.93;;;10.27;;
4106;SDS011;21906;50.812;7.132;2022-09-12T04:38:51;15.60;;;10.40;;
4106;SDS011;21906;50.812;7.132;2022-09-12T04:43:50;12.90;;;10.77;;
4106;SDS011;21906;50.812;7.132;2022-09-12T04:46:22;14.10;;;10.67;;
4106;SDS011;21906;50.812;7.132;2022-09-12T04:48:47;13.27;;;10.30;;
4106;SDS011;21906;50.812;7.132;2022-09-12T04:51:19;14.33;;;10.03;;
4106;SDS011;21906;50.812;7.132;2022-09-12T04:53:50;13.23;;;10.80;;
4106;SDS011;21906;50.812;7.132;2022-09-12T04:56:18;15.53;;;10.77;;
4106;SDS011;21906;50.812;7.132;2022-09-12T04:58:44;14.57;;;10.13;;
4106;SDS011;21906;50.812;7.132;2022-09-12T05:03:38;12.87;;;10.43;;
4106;SDS011;21906;50.812;7.132;2022-09-12T05:06:07;12.67;;;10.27;;
4106;SDS011;21906;50.812;7.132;2022-09-12T05:08:38;13.70;;;10.13;;
4106;SDS011;21906;50.812;7.132;2022-09-12T05:11:05;11.93;;;9.90;;
4106;SDS011;21906;50.812;7.132;2022-09-12T05:13:32;15.10;;;10.90;;
4106;SDS011;21906;50.812;7.132;2022-09-12T05:15:59;14.07;;;10.47;;
4106;SDS011;21906;50.812;7.132;2022-09-12T05:18:27;14.60;;;10.23;;
4106;SDS011;21906;50.812;7.132;2022-09-12T05:20:55;14.70;;;9.50;;
4106;SDS011;21906;50.812;7.132;2022-09-12T05:23:23;13.00;;;10.10;;
4106;SDS011;21906;50.812;7.132;2022-09-12T05:25:49;12.20;;;10.40;;
4106;SDS011;21906;50.812;7.132;2022-09-12T05:28:16;14.77;;;10.90;;
4106;SDS011;21906;50.812;7.132;2022-09-12T05:30:43;15.67;;;10.53;;
4106;SDS011;21906;50.812;7.132;2022-09-12T05:33:09;14.80;;;10.30;;
4106;SDS011;21906;50.812;7.132;2022-09-12T05:35:35;16.27;;;10.00;;
4106;SDS011;21906;50.812;7.132;2022-09-12T05:38:02;11.10;;;9.70;;
4106;SDS011;21906;50.812;7.132;2022-09-12T05:40:28;11.40;;;9.73;;
4106;SDS011;21906;50.812;7.132;2022-09-12T05:42:54;11.53;;;9.57;;
4106;SDS011;21906;50.812;7.132;2022-09-12T05:45:20;12.47;;;9.80;;
4106;SDS011;21906;50.812;7.132;2022-09-12T05:47:46;10.77;;;8.93;;
4106;SDS011;21906;50.812;7.132;2022-09-12T05:50:11;12.83;;;10.10;;
4106;SDS011;21906;50.812;7.132;2022-09-12T05:52:37;11.63;;;10.00;;
4106;SDS011;21906;50.812;7.132;2022-09-12T05:55:03;11.53;;;9.53;;
4106;SDS011;21906;50.812;7.132;2022-09-12T05:57:28;11.27;;;9.37;;
4106;SDS011;21906;50.812;7.132;2022-09-12T05:59:54;14.10;;;10.07;;
4106;SDS011;21906;50.812;7.132;2022-09-12T06:02:20;10.53;;;9.27;;
4106;SDS011;21906;50.812;7.132;2022-09-12T06:04:45;11.30;;;9.40;;
4106;SDS011;21906;50.812;7.132;2022-09-12T06:07:11;9.77;;;8.70;;
4106;SDS011;21906;50.812;7.132;2022-09-12T06:09:37;13.70;;;9.87;;
4106;SDS011;21906;50.812;7.132;2022-09-12T06:12:03;13.40;;;9.50;;
4106;SDS011;21906;50.812;7.132;2022-09-12T06:14:29;11.67;;;9.70;;
4106;SDS011;21906;50.812;7.132;2022-09-12T06:16:54;10.97;;;9.60;;
4106;SDS011;21906;50.812;7.132;2022-09-12T06:19:21;9.37;;;8.47;;
4106;SDS011;21906;50.812;7.132;2022-09-12T06:21:47;10.70;;;8.77;;
4106;SDS011;21906;50.812;7.132;2022-09-12T06:24:14;10.03;;;9.00;;
4106;SDS011;21906;50.812;7.132;2022-09-12T06:26:40;11.90;;;9.00;;
4106;SDS011;21906;50.812;7.132;2022-09-12T06:29:07;9.80;;;8.80;;
4106;SDS011;21906;50.812;7.132;2022-09-12T06:31:35;11.90;;;9.67;;
4106;SDS011;21906;50.812;7.132;2022-09-12T06:34:06;10.83;;;8.83;;
4106;SDS011;21906;50.812;7.132;2022-09-12T06:36:38;11.60;;;9.10;;
4106;SDS011;21906;50.812;7.132;2022-09-12T06:39:08;9.50;;;8.13;;
4106;SDS011;21906;50.812;7.132;2022-09-12T06:41:35;12.10;;;8.70;;
4106;SDS011;21906;50.812;7.132;2022-09-12T06:44:01;10.03;;;8.60;;
4106;SDS011;21906;50.812;7.132;2022-09-12T06:46:27;10.93;;;9.77;;
4106;SDS011;21906;50.812;7.132;2022-09-12T06:48:54;12.00;;;8.87;;
4106;SDS011;21906;50.812;7.132;2022-09-12T06:51:21;9.50;;;8.50;;
4106;SDS011;21906;50.812;7.132;2022-09-12T06:53:47;10.63;;;9.03;;
4106;SDS011;21906;50.812;7.132;2022-09-12T06:56:20;8.93;;;8.03;;
4106;SDS011;21906;50.812;7.132;2022-09-12T06:58:48;11.57;;;8.30;;
4106;SDS011;21906;50.812;7.132;2022-09-12T07:01:19;9.97;;;8.67;;
4106;SDS011;21906;50.812;7.132;2022-09-12T07:03:47;8.37;;;7.57;;
4106;SDS011;21906;50.812;7.132;2022-09-12T07:06:18;9.40;;;8.40;;
4106;SDS011;21906;50.812;7.132;2022-09-12T07:08:45;11.77;;;9.13;;
4106;SDS011;21906;50.812;7.132;2022-09-12T07:11:19;10.60;;;9.10;;
4106;SDS011;21906;50.812;7.132;2022-09-12T07:13:47;8.30;;;7.50;;
4106;SDS011;21906;50.812;7.132;2022-09-12T07:16:17;9.23;;;8.27;;
4106;SDS011;21906;50.812;7.132;2022-09-12T07:18:43;10.00;;;8.80;;
4106;SDS011;21906;50.812;7.132;2022-09-12T07:21:13;9.93;;;8.70;;
4106;SDS011;21906;50.812;7.132;2022-09-12T07:23:39;11.37;;;8.60;;
4106;SDS011;21906;50.812;7.132;2022-09-12T07:26:06;9.10;;;8.20;;
4106;SDS011;21906;50.812;7.132;2022-09-12T07:28:35;13.60;;;9.30;;
4106;SDS011;21906;50.812;7.132;2022-09-12T07:31:14;11.70;;;9.40;;
4106;SDS011;21906;50.812;7.132;2022-09-12T07:33:41;10.47;;;9.30;;
4106;SDS011;21906;50.812;7.132;2022-09-12T07:36:09;10.43;;;8.83;;
4106;SDS011;21906;50.812;7.132;2022-09-12T07:38:37;9.80;;;8.80;;
4106;SDS011;21906;50.812;7.132;2022-09-12T07:41:13;11.73;;;9.27;;
4106;SDS011;21906;50.812;7.132;2022-09-12T07:43:43;9.47;;;8.50;;
4106;SDS011;21906;50.812;7.132;2022-09-12T07:46:09;9.77;;;8.77;;
4106;SDS011;21906;50.812;7.132;2022-09-12T07:48:36;9.20;;;8.30;;
4106;SDS011;21906;50.812;7.132;2022-09-12T07:51:04;13.67;;;9.43;;
4106;SDS011;21906;50.812;7.132;2022-09-12T07:53:40;11.57;;;9.30;;
4106;SDS011;21906;50.812;7.132;2022-09-12T07:56:07;10.50;;;9.40;;
4106;SDS011;21906;50.812;7.132;2022-09-12T07:58:34;9.73;;;8.47;;
4106;SDS011;21906;50.812;7.132;2022-09-12T08:01:03;9.13;;;8.23;;
4106;SDS011;21906;50.812;7.132;2022-09-12T08:03:30;11.10;;;8.60;;
4106;SDS011;21906;50.812;7.132;2022-09-12T08:06:06;9.13;;;8.20;;
4106;SDS011;21906;50.812;7.132;2022-09-12T08:08:34;8.80;;;8.00;;
4106;SDS011;21906;50.812;7.132;2022-09-12T08:11:00;9.80;;;8.80;;
4106;SDS011;21906;50.812;7.132;2022-09-12T08:13:30;11.40;;;9.70;;
4106;SDS011;21906;50.812;7.132;2022-09-12T08:16:00;9.23;;;8.23;;
4106;SDS011;21906;50.812;7.132;2022-09-12T08:18:30;9.07;;;8.13;;
4106;SDS011;21906;50.812;7.132;2022-09-12T08:21:00;8.53;;;7.73;;
4106;SDS011;21906;50.812;7.132;2022-09-12T08:23:28;10.50;;;9.00;;
4106;SDS011;21906;50.812;7.132;2022-09-12T08:25:58;11.13;;;9.10;;
4106;SDS011;21906;50.812;7.132;2022-09-12T08:28:25;9.70;;;8.70;;
4106;SDS011;21906;50.812;7.132;2022-09-12T08:30:52;9.60;;;8.70;;
4106;SDS011;21906;50.812;7.132;2022-09-12T08:33:18;9.20;;;8.30;;
4106;SDS011;21906;50.812;7.132;2022-09-12T08:35:44;13.17;;;9.33;;
4106;SDS011;21906;50.812;7.132;2022-09-12T08:38:09;10.00;;;8.90;;
4106;SDS011;21906;50.812;7.132;2022-09-12T08:40:42;8.90;;;8.10;;
4106;SDS011;21906;50.812;7.132;2022-09-12T08:44:05;8.70;;;7.90;;
4106;SDS011;21906;50.812;7.132;2022-09-12T08:46:13;9.17;;;7.40;;
4106;SDS011;21906;50.812;7.132;2022-09-12T08:48:49;10.53;;;9.17;;
4106;SDS011;21906;50.812;7.132;2022-09-12T08:51:16;9.83;;;8.27;;
4106;SDS011;21906;50.812;7.132;2022-09-12T08:53:44;10.30;;;9.30;;
4106;SDS011;21906;50.812;7.132;2022-09-12T08:56:12;8.80;;;8.00;;
4106;SDS011;21906;50.812;7.132;2022-09-12T08:58:39;9.80;;;8.90;;
4106;SDS011;21906;50.812;7.132;2022-09-12T09:10:16;8.90;;;8.07;;
4106;SDS011;21906;50.812;7.132;2022-09-12T09:15:05;9.00;;;7.87;;
4106;SDS011;21906;50.812;7.132;2022-09-12T09:17:42;7.30;;;6.80;;
4106;SDS011;21906;50.812;7.132;2022-09-12T09:23:13;7.80;;;7.10;;
4106;SDS011;21906;50.812;7.132;2022-09-12T09:28:33;7.17;;;6.67;;
4106;SDS011;21906;50.812;7.132;2022-09-12T09:31:03;8.13;;;7.33;;
4106;SDS011;21906;50.812;7.132;2022-09-12T09:33:32;9.33;;;8.40;;
4106;SDS011;21906;50.812;7.132;2022-09-12T09:36:01;10.00;;;9.00;;
4106;SDS011;21906;50.812;7.132;2022-09-12T09:38:41;7.43;;;6.83;;
4106;SDS011;21906;50.812;7.132;2022-09-12T09:41:22;8.93;;;7.60;;
4106;SDS011;21906;50.812;7.132;2022-09-12T09:44:11;8.27;;;7.37;;
4106;SDS011;21906;50.812;7.132;2022-09-12T09:46:37;8.50;;;7.80;;
4106;SDS011;21906;50.812;7.132;2022-09-12T09:49:03;8.00;;;7.30;;
4106;SDS011;21906;50.812;7.132;2022-09-12T09:51:35;7.43;;;6.83;;
4106;SDS011;21906;50.812;7.132;2022-09-12T09:56:54;7.63;;;6.80;;
4106;SDS011;21906;50.812;7.132;2022-09-12T10:01:58;7.40;;;6.90;;
4106;SDS011;21906;50.812;7.132;2022-09-12T10:04:34;7.97;;;7.47;;
4106;SDS011;21906;50.812;7.132;2022-09-12T10:07:03;7.53;;;6.93;;
4106;SDS011;21906;50.812;7.132;2022-09-12T10:09:33;9.50;;;6.67;;
4106;SDS011;21906;50.812;7.132;2022-09-12T10:12:19;6.90;;;6.40;;
4106;SDS011;21906;50.812;7.132;2022-09-12T10:15:00;6.80;;;6.20;;
4106;SDS011;21906;50.812;7.132;2022-09-12T10:19:56;6.57;;;5.80;;
4106;SDS011;21906;50.812;7.132;2022-09-12T10:22:23;6.47;;;5.97;;
4106;SDS011;21906;50.812;7.132;2022-09-12T10:24:52;6.40;;;6.00;;
4106;SDS011;21906;50.812;7.132;2022-09-12T10:27:30;5.93;;;5.53;;
4106;SDS011;21906;50.812;7.132;2022-09-12T10:30:14;5.77;;;5.43;;
4106;SDS011;21906;50.812;7.132;2022-09-12T10:32:45;5.90;;;5.50;;
4106;SDS011;21906;50.812;7.132;2022-09-12T10:47:50;6.00;;;5.60;;
4106;SDS011;21906;50.812;7.132;2022-09-12T10:53:12;5.77;;;5.37;;
4106;SDS011;21906;50.812;7.132;2022-09-12T11:01:39;4.60;;;4.30;;
4106;SDS011;21906;50.812;7.132;2022-09-12T11:12:12;4.30;;;4.10;;
4106;SDS011;21906;50.812;7.132;2022-09-12T11:26:26;3.90;;;3.70;;
4106;SDS011;21906;50.812;7.132;2022-09-12T11:29:12;5.03;;;4.80;;
4106;SDS011;21906;50.812;7.132;2022-09-12T11:34:48;3.77;;;3.57;;
4106;SDS011;21906;50.812;7.132;2022-09-12T11:37:40;4.13;;;3.93;;
4106;SDS011;21906;50.812;7.132;2022-09-12T11:40:23;3.93;;;3.73;;
4106;SDS011;21906;50.812;7.132;2022-09-12T11:43:05;3.67;;;3.47;;
4106;SDS011;21906;50.812;7.132;2022-09-12T11:45:55;3.73;;;3.53;;
4106;SDS011;21906;50.812;7.132;2022-09-12T11:51:14;3.73;;;3.03;;
4106;SDS011;21906;50.812;7.132;2022-09-12T11:53:54;3.40;;;3.20;;
4106;SDS011;21906;50.812;7.132;2022-09-12T11:56:45;3.40;;;3.20;;
4106;SDS011;21906;50.812;7.132;2022-09-12T11:59:19;3.53;;;3.33;;
4106;SDS011;21906;50.812;7.132;2022-09-12T12:01:57;3.90;;;3.70;;
4106;SDS011;21906;50.812;7.132;2022-09-12T12:04:24;3.73;;;3.50;;
4106;SDS011;21906;50.812;7.132;2022-09-12T12:07:18;3.57;;;3.37;;
4106;SDS011;21906;50.812;7.132;2022-09-12T12:09:47;3.53;;;3.33;;
4106;SDS011;21906;50.812;7.132;2022-09-12T12:12:17;3.30;;;3.20;;
4106;SDS011;21906;50.812;7.132;2022-09-12T12:14:47;3.90;;;3.70;;
4106;SDS011;21906;50.812;7.132;2022-09-12T12:17:16;4.00;;;3.80;;
4106;SDS011;21906;50.812;7.132;2022-09-12T12:19:45;3.50;;;3.30;;
4106;SDS011;21906;50.812;7.132;2022-09-12T12:22:20;2.83;;;2.73;;
4106;SDS011;21906;50.812;7.132;2022-09-12T12:25:01;2.67;;;2.57;;
4106;SDS011;21906;50.812;7.132;2022-09-12T12:35:44;3.40;;;3.20;;
4106;SDS011;21906;50.812;7.132;2022-09-12T12:43:42;3.23;;;3.07;;
4106;SDS011;21906;50.812;7.132;2022-09-12T12:46:16;4.30;;;3.10;;
4106;SDS011;21906;50.812;7.132;2022-09-12T12:48:59;3.27;;;3.07;;
4106;SDS011;21906;50.812;7.132;2022-09-12T12:52:00;3.43;;;3.23;;
4106;SDS011;21906;50.812;7.132;2022-09-12T12:54:27;3.37;;;3.10;;
4106;SDS011;21906;50.812;7.132;2022-09-12T12:57:00;3.37;;;3.17;;
4106;SDS011;21906;50.812;7.132;2022-09-12T12:59:28;3.53;;;3.33;;
4106;SDS011;21906;50.812;7.132;2022-09-12T13:01:54;3.50;;;3.30;;
4106;SDS011;21906;50.812;7.132;2022-09-12T13:04:24;3.17;;;2.97;;
4106;SDS011;21906;50.812;7.132;2022-09-12T13:06:59;3.40;;;3.20;;
4106;SDS011;21906;50.812;7.132;2022-09-12T13:09:42;3.73;;;3.53;;
4106;SDS011;21906;50.812;7.132;2022-09-12T13:12:22;3.57;;;3.37;;
4106;SDS011;21906;50.812;7.132;2022-09-12T13:14:54;3.30;;;3.00;;
4106;SDS011;21906;50.812;7.132;2022-09-12T13:17:27;4.90;;;3.27;;
4106;SDS011;21906;50.812;7.132;2022-09-12T13:20:00;3.60;;;3.40;;
4106;SDS011;21906;50.812;7.132;2022-09-12T13:22:38;3.97;;;3.70;;
4106;SDS011;21906;50.812;7.132;2022-09-12T13:27:56;3.50;;;3.30;;
4106;SDS011;21906;50.812;7.132;2022-09-12T13:30:22;3.83;;;3.53;;
4106;SDS011;21906;50.812;7.132;2022-09-12T13:32:47;3.70;;;3.50;;
4106;SDS011;21906;50.812;7.132;2022-09-12T13:35:26;4.00;;;3.80;;
4106;SDS011;21906;50.812;7.132;2022-09-12T13:38:16;3.80;;;3.60;;
4106;SDS011;21906;50.812;7.132;2022-09-12T13:43:44;3.57;;;3.37;;
4106;SDS011;21906;50.812;7.132;2022-09-12T13:46:12;3.60;;;3.40;;
4106;SDS011;21906;50.812;7.132;2022-09-12T13:48:41;4.23;;;4.03;;
4106;SDS011;21906;50.812;7.132;2022-09-12T13:51:12;3.90;;;3.70;;
4106;SDS011;21906;50.812;7.132;2022-09-12T13:53:51;4.47;;;4.27;;
4106;SDS011;21906;50.812;7.132;2022-09-12T13:56:20;4.97;;;4.47;;
4106;SDS011;21906;50.812;7.132;2022-09-12T13:59:04;4.47;;;4.17;;
4106;SDS011;21906;50.812;7.132;2022-09-12T14:01:38;4.20;;;4.00;;
4106;SDS011;21906;50.812;7.132;2022-09-12T14:07:22;4.50;;;4.30;;
4106;SDS011;21906;50.812;7.132;2022-09-12T14:09:54;4.30;;;4.10;;
4106;SDS011;21906;50.812;7.132;2022-09-12T14:12:25;4.43;;;4.23;;
4106;SDS011;21906;50.812;7.132;2022-09-12T14:15:04;4.20;;;4.00;;
4106;SDS011;21906;50.812;7.132;2022-09-12T14:17:34;3.97;;;3.77;;
4106;SDS011;21906;50.812;7.132;2022-09-12T14:20:07;4.00;;;3.80;;
4106;SDS011;21906;50.812;7.132;2022-09-12T14:22:38;4.20;;;4.00;;
4106;SDS011;21906;50.812;7.132;2022-09-12T14:25:05;3.97;;;3.63;;
4106;SDS011;21906;50.812;7.132;2022-09-12T14:27:40;4.40;;;4.10;;
4106;SDS011;21906;50.812;7.132;2022-09-12T14:35:27;4.30;;;4.10;;
4106;SDS011;21906;50.812;7.132;2022-09-12T14:37:53;4.40;;;4.10;;
4106;SDS011;21906;50.812;7.132;2022-09-12T14:40:21;4.33;;;4.07;;
4106;SDS011;21906;50.812;7.132;2022-09-12T14:42:50;4.80;;;4.50;;
4106;SDS011;21906;50.812;7.132;2022-09-12T14:45:23;4.20;;;3.90;;
4106;SDS011;21906;50.812;7.132;2022-09-12T14:47:58;4.00;;;3.80;;
4106;SDS011;21906;50.812;7.132;2022-09-12T14:50:25;4.43;;;4.23;;
4106;SDS011;21906;50.812;7.132;2022-09-12T14:55:32;3.90;;;3.70;;
4106;SDS011;21906;50.812;7.132;2022-09-12T14:58:20;3.80;;;3.60;;
4106;SDS011;21906;50.812;7.132;2022-09-12T15:04:03;4.00;;;3.80;;
4106;SDS011;21906;50.812;7.132;2022-09-12T15:06:28;3.80;;;3.60;;
4106;SDS011;21906;50.812;7.132;2022-09-12T15:09:07;3.63;;;3.40;;
4106;SDS011;21906;50.812;7.132;2022-09-12T15:11:37;4.00;;;3.70;;
4106;SDS011;21906;50.812;7.132;2022-09-12T15:14:11;4.40;;;4.20;;
4106;SDS011;21906;50.812;7.132;2022-09-12T15:16:37;3.97;;;3.77;;
4106;SDS011;21906;50.812;7.132;2022-09-12T15:19:03;4.27;;;4.07;;
4106;SDS011;21906;50.812;7.132;2022-09-12T15:21:29;3.50;;;3.23;;
4106;SDS011;21906;50.812;7.132;2022-09-12T15:23:54;3.80;;;3.60;;
4106;SDS011;21906;50.812;7.132;2022-09-12T15:26:21;4.10;;;3.90;;
4106;SDS011;21906;50.812;7.132;2022-09-12T15:28:48;4.50;;;4.30;;
4106;SDS011;21906;50.812;7.132;2022-09-12T15:31:27;4.33;;;4.13;;
4106;SDS011;21906;50.812;7.132;2022-09-12T15:33:55;4.23;;;4.03;;
4106;SDS011;21906;50.812;7.132;2022-09-12T15:36:21;4.20;;;4.00;;
4106;SDS011;21906;50.812;7.132;2022-09-12T15:38:48;4.50;;;4.20;;
4106;SDS011;21906;50.812;7.132;2022-09-12T15:41:15;4.20;;;4.00;;
4106;SDS011;21906;50.812;7.132;2022-09-12T15:43:46;4.30;;;3.90;;
4106;SDS011;21906;50.812;7.132;2022-09-12T15:46:13;4.47;;;4.27;;
4106;SDS011;21906;50.812;7.132;2022-09-12T15:48:40;5.33;;;5.03;;
4106;SDS011;21906;50.812;7.132;2022-09-12T15:51:16;4.73;;;4.53;;
4106;SDS011;21906;50.812;7.132;2022-09-12T15:53:44;5.00;;;4.80;;
4106;SDS011;21906;50.812;7.132;2022-09-12T15:56:11;5.03;;;4.73;;
4106;SDS011;21906;50.812;7.132;2022-09-12T15:58:37;5.03;;;4.47;;
4106;SDS011;21906;50.812;7.132;2022-09-12T16:01:03;5.20;;;4.83;;
4106;SDS011;21906;50.812;7.132;2022-09-12T16:03:29;4.90;;;4.60;;
4106;SDS011;21906;50.812;7.132;2022-09-12T16:05:57;5.30;;;5.00;;
4106;SDS011;21906;50.812;7.132;2022-09-12T16:08:25;4.70;;;4.47;;
4106;SDS011;21906;50.812;7.132;2022-09-12T16:10:53;4.40;;;4.10;;
4106;SDS011;21906;50.812;7.132;2022-09-12T16:13:21;4.87;;;4.50;;
4106;SDS011;21906;50.812;7.132;2022-09-12T16:15:48;4.50;;;4.30;;
4106;SDS011;21906;50.812;7.132;2022-09-12T16:18:14;4.90;;;4.70;;
4106;SDS011;21906;50.812;7.132;2022-09-12T16:20:39;4.90;;;4.60;;
4106;SDS011;21906;50.812;7.132;2022-09-12T16:23:06;5.20;;;4.90;;
4106;SDS011;21906;50.812;7.132;2022-09-12T16:25:34;4.80;;;4.40;;
4106;SDS011;21906;50.812;7.132;2022-09-12T16:28:01;4.57;;;4.27;;
4106;SDS011;21906;50.812;7.132;2022-09-12T16:30:31;8.70;;;5.30;;
4106;SDS011;21906;50.812;7.132;2022-09-12T16:32:57;4.83;;;4.63;;
4106;SDS011;21906;50.812;7.132;2022-09-12T16:35:23;4.90;;;4.70;;
4106;SDS011;21906;50.812;7.132;2022-09-12T16:37:49;5.40;;;5.13;;
4106;SDS011;21906;50.812;7.132;2022-09-12T16:40:14;4.73;;;4.50;;
4106;SDS011;21906;50.812;7.132;2022-09-12T16:42:43;4.37;;;4.17;;
4106;SDS011;21906;50.812;7.132;2022-09-12T16:45:09;4.87;;;4.60;;
4106;SDS011;21906;50.812;7.132;2022-09-12T16:47:36;4.80;;;4.60;;
4106;SDS011;21906;50.812;7.132;2022-09-12T16:50:02;4.80;;;4.50;;
4106;SDS011;21906;50.812;7.132;2022-09-12T16:52:28;4.60;;;4.30;;
4106;SDS011;21906;50.812;7.132;2022-09-12T16:54:55;4.63;;;4.43;;
4106;SDS011;21906;50.812;7.132;2022-09-12T16:57:21;4.70;;;4.50;;
4106;SDS011;21906;50.812;7.132;2022-09-12T16:59:47;4.13;;;3.93;;
4106;SDS011;21906;50.812;7.132;2022-09-12T17:02:13;4.60;;;4.30;;
4106;SDS011;21906;50.812;7.132;2022-09-12T17:04:39;4.27;;;4.07;;
4106;SDS011;21906;50.812;7.132;2022-09-12T17:07:05;4.07;;;3.87;;
4106;SDS011;21906;50.812;7.132;2022-09-12T17:09:31;4.20;;;4.00;;
4106;SDS011;21906;50.812;7.132;2022-09-12T17:11:57;4.20;;;3.90;;
4106;SDS011;21906;50.812;7.132;2022-09-12T17:14:23;4.20;;;3.90;;
4106;SDS011;21906;50.812;7.132;2022-09-12T17:16:49;4.40;;;4.20;;
4106;SDS011;21906;50.812;7.132;2022-09-12T17:19:20;4.10;;;3.90;;
4106;SDS011;21906;50.812;7.132;2022-09-12T17:21:50;4.33;;;4.03;;
4106;SDS011;21906;50.812;7.132;2022-09-12T17:24:16;4.17;;;3.97;;
4106;SDS011;21906;50.812;7.132;2022-09-12T17:26:43;3.60;;;3.40;;
4106;SDS011;21906;50.812;7.132;2022-09-12T17:29:10;3.73;;;3.53;;
4106;SDS011;21906;50.812;7.132;2022-09-12T17:31:36;3.70;;;3.50;;
4106;SDS011;21906;50.812;7.132;2022-09-12T17:34:02;3.60;;;3.37;;
4106;SDS011;21906;50.812;7.132;2022-09-12T17:36:28;3.70;;;3.50;;
4106;SDS011;21906;50.812;7.132;2022-09-12T17:38:56;3.53;;;3.33;;